OPDR Canarias — ECKY — position and weather

sailwx.info

Track history (hours):
 
Tides and Currents Weather Stations Pressure Air Temp Water Temp Dewpoint Dewpoint Depression Visibility Wind Speed Wind Dir Waves Ship Positions

OPDR Canarias

Last reported at 2017-Nov-18 14:31 UTC. Time now 2017-Nov-18 14:32 UTC.
Position N 28°08' W 015°25'.

Length 145 m; draft 5.4 m.

Type: Ship (hazmat cat A). MMSI: 225315000.

Date/timePositionNaut miles runAvg speedWind from/ knotsBaromVisibWave heightAir tempDewpointWater temp
2017-Nov-18 14:31N 28°08' W 015°25'1 2.2
2017-Nov-18 13:59N 28°09' W 015°25'0 0.0
2017-Nov-18 13:29N 28°09' W 015°25'0 0.0
2017-Nov-18 12:59N 28°09' W 015°25'0 0.0
2017-Nov-18 12:29N 28°09' W 015°25'0 0.0
2017-Nov-18 11:56N 28°09' W 015°25'0 0.0
2017-Nov-18 11:26N 28°09' W 015°25'0 0.0
2017-Nov-18 10:59N 28°09' W 015°25'0 0.0
2017-Nov-18 10:29N 28°09' W 015°25'0 0.0
2017-Nov-18 09:59N 28°09' W 015°25'0 0.0
2017-Nov-18 09:20N 28°09' W 015°25'0 0.0
2017-Nov-18 08:59N 28°09' W 015°25'0 0.0
2017-Nov-18 08:20N 28°09' W 015°25'0 0.0
2017-Nov-18 07:50N 28°09' W 015°25'0 0.0
2017-Nov-18 07:20N 28°09' W 015°25'0 0.0
2017-Nov-18 06:35N 28°09' W 015°25'0 0.0
2017-Nov-18 06:23N 28°09' W 015°25'0 0.0
2017-Nov-18 05:53N 28°09' W 015°25'0 0.0
2017-Nov-18 05:23N 28°09' W 015°25'0 0.0
2017-Nov-18 04:53N 28°09' W 015°25'0 0.0
2017-Nov-18 04:20N 28°09' W 015°25'0 0.0
2017-Nov-18 03:53N 28°09' W 015°25'0 0.0
2017-Nov-18 03:26N 28°09' W 015°25'0 0.0
2017-Nov-18 02:56N 28°09' W 015°25'0 0.0
2017-Nov-18 02:23N 28°09' W 015°25'0 0.0
2017-Nov-18 01:53N 28°09' W 015°25'0 0.0
2017-Nov-18 01:26N 28°09' W 015°25'0 0.0
2017-Nov-18 00:56N 28°09' W 015°25'0 0.0
2017-Nov-18 00:29N 28°09' W 015°25'0 0.0
2017-Nov-17 23:59N 28°09' W 015°25'1 1.1
2017-Nov-17 23:30N 28°08' W 015°25'2 4.1
2017-Nov-17 23:00N 28°10' W 015°23'612.8
2017-Nov-17 22:30N 28°15' W 015°27'714.8
2017-Nov-17 22:00N 28°17' W 015°35'714.0
2017-Nov-17 21:30N 28°19' W 015°43'713.8
2017-Nov-17 21:00N 28°21' W 015°50'713.7
2017-Nov-17 20:30N 28°24' W 015°58'814.4
2017-Nov-17 19:55N 28°26' W 016°07'6 0.7
2017-Nov-17 10:30N 28°29' W 016°13'0 0.0
2017-Nov-17 10:01N 28°29' W 016°13'0 0.0
2017-Nov-17 09:30N 28°29' W 016°13'0 0.0
2017-Nov-17 09:00N 28°29' W 016°13'0 0.0
2017-Nov-17 08:30N 28°29' W 016°13'0 0.0
2017-Nov-17 07:57N 28°29' W 016°13'0 0.0
2017-Nov-17 06:37N 28°29' W 016°13'0 0.0
2017-Nov-17 06:28N 28°29' W 016°13'0 0.0
2017-Nov-17 05:59N 28°29' W 016°13'0 0.0
2017-Nov-17 05:30N 28°29' W 016°13'0 0.0
2017-Nov-17 04:58N 28°29' W 016°13'0 0.0
2017-Nov-17 04:29N 28°29' W 016°13'0 0.0
2017-Nov-17 04:00N 28°29' W 016°13'0 0.0
2017-Nov-17 03:30N 28°29' W 016°13'0 0.0
2017-Nov-17 02:58N 28°29' W 016°13'0 0.0
2017-Nov-17 02:25N 28°29' W 016°13'0 0.0
2017-Nov-17 01:55N 28°29' W 016°13'0 0.0
2017-Nov-17 01:30N 28°29' W 016°13'0 0.0
2017-Nov-17 00:54N 28°29' W 016°13'0 0.0
2017-Nov-17 00:25N 28°29' W 016°13'0 0.0
2017-Nov-17 00:00N 28°29' W 016°13'0 0.0
2017-Nov-16 23:31N 28°29' W 016°13'0 0.0
2017-Nov-16 23:01N 28°29' W 016°13'0 0.0
2017-Nov-16 22:31N 28°29' W 016°13'0 0.0
2017-Nov-16 21:59N 28°29' W 016°13'1 1.4
2017-Nov-16 21:31N 28°29' W 016°14'4 7.6
2017-Nov-16 21:00N 28°29' W 016°09'815.1
2017-Nov-16 20:29N 28°33' W 016°02'915.3
2017-Nov-16 19:53N 28°40' W 015°55'615.2
2017-Nov-16 19:29N 28°44' W 015°50'715.3
2017-Nov-16 19:00N 28°50' W 015°45'  
2017-Nov-12 05:24N 30°18' W 012°46'614.3
2017-Nov-12 05:00N 30°14' W 012°52'814.3
2017-Nov-12 04:27N 30°09' W 012°59'614.1
2017-Nov-12 04:00N 30°05' W 013°04'1114.1
2017-Nov-12 03:12N 29°57' W 013°13'3613.8
2017-Nov-12 00:33N 29°32' W 013°44'113.3
2017-Nov-12 00:27N 29°31' W 013°45'613.1
2017-Nov-12 00:00N 29°27' W 013°50'612.7
2017-Nov-11 23:29N 29°22' W 013°55'912.7
2017-Nov-11 22:49N 29°16' W 014°02'813.2
2017-Nov-11 22:14N 29°11' W 014°08'313.2
2017-Nov-11 22:00N 29°09' W 014°11'713.4
2017-Nov-11 21:31N 29°04' W 014°16'713.6
2017-Nov-11 21:00N 28°59' W 014°22'713.6
2017-Nov-11 20:30N 28°55' W 014°27'713.6
2017-Nov-11 20:00N 28°50' W 014°33'713.4
2017-Nov-11 19:30N 28°45' W 014°38'713.5
2017-Nov-11 19:00N 28°40' W 014°44'713.4
2017-Nov-11 18:30N 28°36' W 014°50'713.2
2017-Nov-11 17:59N 28°32' W 014°56'613.1
2017-Nov-11 17:30N 28°28' W 015°01'713.2
2017-Nov-11 17:00N 28°24' W 015°07'713.2
2017-Nov-11 16:30N 28°19' W 015°13'713.5
2017-Nov-11 16:01N 28°14' W 015°17'713.2
2017-Nov-11 15:30N 28°09' W 015°22'2 4.8
2017-Nov-11 15:00N 28°09' W 015°25'0 0.0
2017-Nov-11 14:26N 28°09' W 015°25'0 0.0
2017-Nov-11 13:56N 28°09' W 015°25'0 0.0
2017-Nov-11 13:23N 28°09' W 015°25'0 0.0
2017-Nov-11 12:59N 28°09' W 015°25'0 0.0
2017-Nov-11 12:26N 28°09' W 015°25'0 0.0
2017-Nov-11 11:56N 28°09' W 015°25'0 0.0
2017-Nov-11 11:29N 28°09' W 015°25'0 0.0
2017-Nov-11 10:53N 28°09' W 015°25'0 0.0
2017-Nov-11 10:26N 28°09' W 015°25'0 0.0
2017-Nov-11 09:56N 28°09' W 015°25'0 0.0
2017-Nov-11 09:26N 28°09' W 015°25'0 0.0
2017-Nov-11 08:56N 28°09' W 015°25'0 0.0
2017-Nov-11 08:25N 28°09' W 015°25'0 0.0
2017-Nov-11 07:53N 28°09' W 015°25'0 0.0
2017-Nov-11 07:26N 28°09' W 015°25'0 0.0
2017-Nov-11 06:58N 28°09' W 015°25'0 0.0
2017-Nov-11 06:28N 28°09' W 015°25'0 0.0
2017-Nov-11 05:55N 28°09' W 015°25'0 0.0
2017-Nov-11 05:28N 28°09' W 015°25'0 0.0
2017-Nov-11 04:58N 28°09' W 015°25'0 0.0
2017-Nov-11 04:28N 28°09' W 015°25'0 0.0
2017-Nov-11 03:58N 28°09' W 015°25'0 0.0
2017-Nov-11 03:28N 28°09' W 015°25'0 0.0
2017-Nov-11 02:58N 28°09' W 015°25'0 0.0
2017-Nov-11 02:17N 28°09' W 015°25'0 0.0
2017-Nov-11 01:58N 28°09' W 015°25'0 0.0
2017-Nov-11 01:30N 28°09' W 015°25'2 3.7
2017-Nov-11 01:00N 28°07' W 015°24'2 3.7
2017-Nov-11 00:30N 28°09' W 015°23'611.7
2017-Nov-11 00:00N 28°14' W 015°26'713.6
2017-Nov-10 23:30N 28°16' W 015°33'713.7
2017-Nov-10 23:00N 28°18' W 015°40'713.3
2017-Nov-10 22:30N 28°21' W 015°47'713.3
2017-Nov-10 22:00N 28°23' W 015°55'713.4
2017-Nov-10 21:30N 28°25' W 016°02'11 0.5
2017-Nov-10 00:17N 28°29' W 016°13'3 3.8
2017-Nov-09 23:37N 28°29' W 016°11'214.1
2017-Nov-09 23:28N 28°29' W 016°08'2914.5
2017-Nov-09 21:30N 28°49' W 015°45'  
Track history (hours):
 
Tides and Currents Weather Stations Pressure Air Temp Water Temp Dewpoint Dewpoint Depression Visibility Wind Speed Wind Dir Waves Ship Positions

OPDR Canarias

Last reported at 2017-Nov-18 14:31 UTC. Time now 2017-Nov-18 14:32 UTC.
Position N 28°08' W 015°25'.

Length 145 m; draft 5.4 m.

Type: Ship (hazmat cat A). MMSI: 225315000.

Date/timePositionNaut miles runAvg speedWind from/ knotsBaromVisibWave heightAir tempDewpointWater temp
2017-Nov-18 14:31N 28°08' W 015°25'1 2.2
2017-Nov-18 13:59N 28°09' W 015°25'0 0.0
2017-Nov-18 13:29N 28°09' W 015°25'0 0.0
2017-Nov-18 12:59N 28°09' W 015°25'0 0.0
2017-Nov-18 12:29N 28°09' W 015°25'0 0.0
2017-Nov-18 11:56N 28°09' W 015°25'0 0.0
2017-Nov-18 11:26N 28°09' W 015°25'0 0.0
2017-Nov-18 10:59N 28°09' W 015°25'0 0.0
2017-Nov-18 10:29N 28°09' W 015°25'0 0.0
2017-Nov-18 09:59N 28°09' W 015°25'0 0.0
2017-Nov-18 09:20N 28°09' W 015°25'0 0.0
2017-Nov-18 08:59N 28°09' W 015°25'0 0.0
2017-Nov-18 08:20N 28°09' W 015°25'0 0.0
2017-Nov-18 07:50N 28°09' W 015°25'0 0.0
2017-Nov-18 07:20N 28°09' W 015°25'0 0.0
2017-Nov-18 06:35N 28°09' W 015°25'0 0.0
2017-Nov-18 06:23N 28°09' W 015°25'0 0.0
2017-Nov-18 05:53N 28°09' W 015°25'0 0.0
2017-Nov-18 05:23N 28°09' W 015°25'0 0.0
2017-Nov-18 04:53N 28°09' W 015°25'0 0.0
2017-Nov-18 04:20N 28°09' W 015°25'0 0.0
2017-Nov-18 03:53N 28°09' W 015°25'0 0.0
2017-Nov-18 03:26N 28°09' W 015°25'0 0.0
2017-Nov-18 02:56N 28°09' W 015°25'0 0.0
2017-Nov-18 02:23N 28°09' W 015°25'0 0.0
2017-Nov-18 01:53N 28°09' W 015°25'0 0.0
2017-Nov-18 01:26N 28°09' W 015°25'0 0.0
2017-Nov-18 00:56N 28°09' W 015°25'0 0.0
2017-Nov-18 00:29N 28°09' W 015°25'0 0.0
2017-Nov-17 23:59N 28°09' W 015°25'1 1.1
2017-Nov-17 23:30N 28°08' W 015°25'2 4.1
2017-Nov-17 23:00N 28°10' W 015°23'612.8
2017-Nov-17 22:30N 28°15' W 015°27'714.8
2017-Nov-17 22:00N 28°17' W 015°35'714.0
2017-Nov-17 21:30N 28°19' W 015°43'713.8
2017-Nov-17 21:00N 28°21' W 015°50'713.7
2017-Nov-17 20:30N 28°24' W 015°58'814.4
2017-Nov-17 19:55N 28°26' W 016°07'6 0.7
2017-Nov-17 10:30N 28°29' W 016°13'0 0.0
2017-Nov-17 10:01N 28°29' W 016°13'0 0.0
2017-Nov-17 09:30N 28°29' W 016°13'0 0.0
2017-Nov-17 09:00N 28°29' W 016°13'0 0.0
2017-Nov-17 08:30N 28°29' W 016°13'0 0.0
2017-Nov-17 07:57N 28°29' W 016°13'0 0.0
2017-Nov-17 06:37N 28°29' W 016°13'0 0.0
2017-Nov-17 06:28N 28°29' W 016°13'0 0.0
2017-Nov-17 05:59N 28°29' W 016°13'0 0.0
2017-Nov-17 05:30N 28°29' W 016°13'0 0.0
2017-Nov-17 04:58N 28°29' W 016°13'0 0.0
2017-Nov-17 04:29N 28°29' W 016°13'0 0.0
2017-Nov-17 04:00N 28°29' W 016°13'0 0.0
2017-Nov-17 03:30N 28°29' W 016°13'0 0.0
2017-Nov-17 02:58N 28°29' W 016°13'0 0.0
2017-Nov-17 02:25N 28°29' W 016°13'0 0.0
2017-Nov-17 01:55N 28°29' W 016°13'0 0.0
2017-Nov-17 01:30N 28°29' W 016°13'0 0.0
2017-Nov-17 00:54N 28°29' W 016°13'0 0.0
2017-Nov-17 00:25N 28°29' W 016°13'0 0.0
2017-Nov-17 00:00N 28°29' W 016°13'0 0.0
2017-Nov-16 23:31N 28°29' W 016°13'0 0.0
2017-Nov-16 23:01N 28°29' W 016°13'0 0.0
2017-Nov-16 22:31N 28°29' W 016°13'0 0.0
2017-Nov-16 21:59N 28°29' W 016°13'1 1.4
2017-Nov-16 21:31N 28°29' W 016°14'4 7.6
2017-Nov-16 21:00N 28°29' W 016°09'815.1
2017-Nov-16 20:29N 28°33' W 016°02'915.3
2017-Nov-16 19:53N 28°40' W 015°55'615.2
2017-Nov-16 19:29N 28°44' W 015°50'715.3
2017-Nov-16 19:00N 28°50' W 015°45'  
2017-Nov-12 05:24N 30°18' W 012°46'614.3
2017-Nov-12 05:00N 30°14' W 012°52'814.3
2017-Nov-12 04:27N 30°09' W 012°59'614.1
2017-Nov-12 04:00N 30°05' W 013°04'1114.1
2017-Nov-12 03:12N 29°57' W 013°13'3613.8
2017-Nov-12 00:33N 29°32' W 013°44'113.3
2017-Nov-12 00:27N 29°31' W 013°45'613.1
2017-Nov-12 00:00N 29°27' W 013°50'612.7
2017-Nov-11 23:29N 29°22' W 013°55'912.7
2017-Nov-11 22:49N 29°16' W 014°02'813.2
2017-Nov-11 22:14N 29°11' W 014°08'313.2
2017-Nov-11 22:00N 29°09' W 014°11'713.4
2017-Nov-11 21:31N 29°04' W 014°16'713.6
2017-Nov-11 21:00N 28°59' W 014°22'713.6
2017-Nov-11 20:30N 28°55' W 014°27'713.6
2017-Nov-11 20:00N 28°50' W 014°33'713.4
2017-Nov-11 19:30N 28°45' W 014°38'713.5
2017-Nov-11 19:00N 28°40' W 014°44'713.4
2017-Nov-11 18:30N 28°36' W 014°50'713.2
2017-Nov-11 17:59N 28°32' W 014°56'613.1
2017-Nov-11 17:30N 28°28' W 015°01'713.2
2017-Nov-11 17:00N 28°24' W 015°07'713.2
2017-Nov-11 16:30N 28°19' W 015°13'713.5
2017-Nov-11 16:01N 28°14' W 015°17'713.2
2017-Nov-11 15:30N 28°09' W 015°22'2 4.8
2017-Nov-11 15:00N 28°09' W 015°25'0 0.0
2017-Nov-11 14:26N 28°09' W 015°25'0 0.0
2017-Nov-11 13:56N 28°09' W 015°25'0 0.0
2017-Nov-11 13:23N 28°09' W 015°25'0 0.0
2017-Nov-11 12:59N 28°09' W 015°25'0 0.0
2017-Nov-11 12:26N 28°09' W 015°25'0 0.0
2017-Nov-11 11:56N 28°09' W 015°25'0 0.0
2017-Nov-11 11:29N 28°09' W 015°25'0 0.0
2017-Nov-11 10:53N 28°09' W 015°25'0 0.0
2017-Nov-11 10:26N 28°09' W 015°25'0 0.0
2017-Nov-11 09:56N 28°09' W 015°25'0 0.0
2017-Nov-11 09:26N 28°09' W 015°25'0 0.0
2017-Nov-11 08:56N 28°09' W 015°25'0 0.0
2017-Nov-11 08:25N 28°09' W 015°25'0 0.0
2017-Nov-11 07:53N 28°09' W 015°25'0 0.0
2017-Nov-11 07:26N 28°09' W 015°25'0 0.0
2017-Nov-11 06:58N 28°09' W 015°25'0 0.0
2017-Nov-11 06:28N 28°09' W 015°25'0 0.0
2017-Nov-11 05:55N 28°09' W 015°25'0 0.0
2017-Nov-11 05:28N 28°09' W 015°25'0 0.0
2017-Nov-11 04:58N 28°09' W 015°25'0 0.0
2017-Nov-11 04:28N 28°09' W 015°25'0 0.0
2017-Nov-11 03:58N 28°09' W 015°25'0 0.0
2017-Nov-11 03:28N 28°09' W 015°25'0 0.0
2017-Nov-11 02:58N 28°09' W 015°25'0 0.0
2017-Nov-11 02:17N 28°09' W 015°25'0 0.0
2017-Nov-11 01:58N 28°09' W 015°25'0 0.0
2017-Nov-11 01:30N 28°09' W 015°25'2 3.7
2017-Nov-11 01:00N 28°07' W 015°24'2 3.7
2017-Nov-11 00:30N 28°09' W 015°23'611.7
2017-Nov-11 00:00N 28°14' W 015°26'713.6
2017-Nov-10 23:30N 28°16' W 015°33'713.7
2017-Nov-10 23:00N 28°18' W 015°40'713.3
2017-Nov-10 22:30N 28°21' W 015°47'713.3
2017-Nov-10 22:00N 28°23' W 015°55'713.4
2017-Nov-10 21:30N 28°25' W 016°02'11 0.5
2017-Nov-10 00:17N 28°29' W 016°13'3 3.8
2017-Nov-09 23:37N 28°29' W 016°11'214.1
2017-Nov-09 23:28N 28°29' W 016°08'2914.5
2017-Nov-09 21:30N 28°49' W 015°45'  

Dump ship's entire track history